Time;durP1;ratioP1;P1;durP2;ratioP2;P2;SDS_P1;SDS_P2;PMS_P1;PMS_P2;Temp;Humidity;BMP_temperature;BMP_pressure;BME280_temperature;BME280_humidity;BME280_pressure;Samples;Min_cycle;Max_cycle;Signal;HPM_P1;HPM_P2
2022/12/07 00:01:08;;;;;;;2.03;0.75;;;17.60;1.00;;;;;;4843300;29;20049;-40
2022/12/07 00:03:36;;;;;;;1.95;0.30;;;17.60;1.00;;;;;;4843337;29;20249;-40
2022/12/07 00:06:04;;;;;;;1.95;0.35;;;17.60;1.00;;;;;;4843362;29;20122;-40
2022/12/07 00:08:32;;;;;;;2.72;0.45;;;17.50;1.00;;;;;;4843362;29;20044;-40
2022/12/07 00:11:03;;;;;;;4.75;0.60;;;17.50;1.00;;;;;;4843161;29;20116;-40
2022/12/07 00:13:31;;;;;;;1.55;0.30;;;17.50;1.00;;;;;;4842943;29;20494;-40
2022/12/07 00:16:02;;;;;;;1.95;0.35;;;17.40;1.00;;;;;;4843169;29;20046;-40
2022/12/07 00:18:29;;;;;;;2.15;0.93;;;17.40;1.00;;;;;;4843147;29;20073;-40
2022/12/07 00:21:01;;;;;;;0.90;0.20;;;17.40;1.00;;;;;;4826658;29;20137;-40
2022/12/07 00:23:27;;;;;;;2.25;0.20;;;17.30;1.00;;;;;;4842899;29;20449;-39
2022/12/07 00:25:54;;;;;;;2.30;0.30;;;17.30;1.00;;;;;;4842941;29;20410;-40
2022/12/07 00:28:21;;;;;;;1.40;0.30;;;17.30;1.00;;;;;;4842962;29;20057;-40
2022/12/07 00:30:48;;;;;;;1.77;0.73;;;17.30;1.00;;;;;;4842914;29;20464;-40
2022/12/07 00:33:14;;;;;;;1.60;0.20;;;17.20;1.00;;;;;;4842812;29;20079;-39
2022/12/07 00:35:41;;;;;;;1.73;0.52;;;17.20;1.00;;;;;;4842808;29;20046;-39
2022/12/07 00:38:08;;;;;;;1.23;0.40;;;17.20;1.00;;;;;;4842834;29;20050;-39
2022/12/07 00:40:34;;;;;;;1.58;0.60;;;17.20;1.00;;;;;;4842659;29;20418;-39
2022/12/07 00:43:01;;;;;;;2.13;0.73;;;17.10;1.00;;;;;;4842410;29;20425;-38
2022/12/07 00:45:28;;;;;;;1.60;0.57;;;17.10;1.00;;;;;;4841711;29;20046;-38
2022/12/07 00:47:55;;;;;;;1.20;0.47;;;17.10;1.00;;;;;;4842632;29;20057;-39
2022/12/07 00:50:21;;;;;;;1.20;0.68;;;17.10;1.00;;;;;;4842552;29;20045;-39
2022/12/07 00:52:48;;;;;;;0.55;0.10;;;17.00;1.00;;;;;;4842217;29;20046;-38
2022/12/07 00:55:15;;;;;;;2.35;0.52;;;17.00;1.00;;;;;;4842421;29;20054;-38
2022/12/07 00:57:41;;;;;;;2.85;0.50;;;17.00;1.00;;;;;;4842531;29;20077;-40
2022/12/07 01:00:09;;;;;;;1.33;0.20;;;17.00;1.00;;;;;;4842386;29;20502;-38
2022/12/07 01:02:35;;;;;;;1.85;0.52;;;17.00;1.00;;;;;;4842169;29;20050;-39
2022/12/07 01:05:02;;;;;;;3.10;0.30;;;16.90;1.00;;;;;;4826090;29;20054;-38
2022/12/07 01:07:29;;;;;;;2.05;0.60;;;16.90;1.00;;;;;;4842218;29;20046;-38
2022/12/07 01:09:56;;;;;;;3.97;0.40;;;16.90;1.00;;;;;;4825640;29;20085;-39
2022/12/07 01:12:22;;;;;;;4.93;0.40;;;16.90;1.00;;;;;;4841976;29;20046;-39
2022/12/07 01:14:49;;;;;;;1.13;0.30;;;16.90;1.00;;;;;;4842178;29;20391;-39
2022/12/07 01:17:16;;;;;;;4.28;0.40;;;16.90;1.00;;;;;;4842135;29;20088;-39
2022/12/07 01:19:42;;;;;;;3.08;0.55;;;16.80;1.00;;;;;;4825597;29;20153;-39
2022/12/07 01:22:09;;;;;;;1.95;0.60;;;16.80;1.00;;;;;;4841827;29;20124;-39
2022/12/07 01:24:36;;;;;;;3.10;0.30;;;16.80;1.00;;;;;;4841594;29;20395;-39
2022/12/07 01:27:03;;;;;;;2.17;0.98;;;16.80;1.00;;;;;;4841893;29;20118;-39
2022/12/07 01:29:29;;;;;;;1.73;0.50;;;16.70;1.00;;;;;;4825722;29;20102;-39
2022/12/07 01:31:56;;;;;;;3.03;0.73;;;16.70;1.00;;;;;;4841769;29;20073;-39
2022/12/07 01:34:23;;;;;;;3.13;0.30;;;16.70;1.00;;;;;;4841647;29;20114;-39
2022/12/07 01:36:49;;;;;;;4.68;0.50;;;16.70;1.00;;;;;;4841691;29;20513;-39
2022/12/07 01:39:16;;;;;;;1.67;0.50;;;16.60;1.00;;;;;;4825289;29;20077;-39
2022/12/07 01:41:43;;;;;;;5.75;0.43;;;16.60;1.00;;;;;;4841716;29;20129;-39
2022/12/07 01:44:21;;;;;;;4.32;0.30;;;16.60;1.00;;;;;;4841579;29;20472;-39
2022/12/07 01:46:55;;;;;;;4.03;0.52;;;16.60;1.00;;;;;;4841493;29;20046;-39
2022/12/07 01:49:33;;;;;;;2.85;0.47;;;16.50;1.00;;;;;;4841620;29;20045;-39
2022/12/07 01:52:03;;;;;;;3.38;0.90;;;16.50;1.00;;;;;;4841527;29;20053;-39
2022/12/07 01:54:31;;;;;;;0.40;0.10;;;16.50;1.00;;;;;;4841263;29;20047;-39
2022/12/07 01:56:59;;;;;;;1.40;0.75;;;16.50;1.00;;;;;;4841314;29;20088;-39
2022/12/07 01:59:26;;;;;;;1.40;0.30;;;16.50;1.00;;;;;;4841590;29;20050;-39
2022/12/07 02:01:55;;;;;;;3.88;0.35;;;16.40;1.00;;;;;;4841156;29;20057;-39
2022/12/07 02:04:22;;;;;;;3.17;0.40;;;16.40;1.00;;;;;;4841454;29;20444;-39
2022/12/07 02:06:50;;;;;;;1.85;0.30;;;16.40;1.00;;;;;;4841263;29;20570;-39
2022/12/07 02:09:17;;;;;;;3.00;0.65;;;16.40;1.00;;;;;;4841305;29;20721;-39
2022/12/07 02:11:44;;;;;;;1.77;0.32;;;16.40;1.00;;;;;;4841218;29;20058;-39
2022/12/07 02:14:11;;;;;;;1.55;0.35;;;16.40;1.00;;;;;;4841051;29;20513;-39
2022/12/07 02:17:02;;;;;;;2.65;0.40;;;16.40;1.00;;;;;;4841237;29;20084;-40
2022/12/07 02:19:32;;;;;;;1.73;0.43;;;16.30;1.00;;;;;;4841327;29;20050;-39
2022/12/07 02:22:24;;;;;;;2.33;0.57;;;16.30;1.00;;;;;;4840965;29;20088;-39
2022/12/07 02:25:12;;;;;;;3.30;0.38;;;16.30;1.00;;;;;;4841009;29;20054;-39
2022/12/07 02:28:01;;;;;;;1.85;0.45;;;16.30;1.00;;;;;;4841142;29;20052;-39
2022/12/07 02:30:33;;;;;;;1.75;0.47;;;16.20;1.00;;;;;;4841221;29;20112;-40
2022/12/07 02:33:03;;;;;;;2.13;0.40;;;16.20;1.00;;;;;;4841138;29;20076;-39
2022/12/07 02:36:01;;;;;;;1.95;0.35;;;16.20;1.00;;;;;;4841154;29;20081;-39
2022/12/07 02:38:34;;;;;;;2.92;0.70;;;16.20;1.00;;;;;;4833145;29;20533;-39
2022/12/07 02:41:07;;;;;;;;;;;16.20;1.00;;;;;;4841432;29;20130;-39
2022/12/07 02:43:44;;;;;;;1.13;0.25;;;16.10;1.00;;;;;;4840742;29;19961;-39
2022/12/07 02:46:20;;;;;;;2.40;0.50;;;16.10;1.00;;;;;;4840861;29;20064;-39
2022/12/07 02:51:38;;;;;;;2.33;0.40;;;16.00;1.00;;;;;;4840914;29;20053;-39
2022/12/07 02:54:13;;;;;;;4.22;0.50;;;16.00;1.00;;;;;;4840835;29;20046;-40
2022/12/07 02:56:49;;;;;;;1.95;0.45;;;16.00;1.00;;;;;;4841013;29;20054;-40
2022/12/07 02:59:35;;;;;;;1.13;0.40;;;16.00;1.00;;;;;;4840968;29;20053;-40
2022/12/07 03:02:04;;;;;;;3.22;0.57;;;16.00;1.00;;;;;;4840793;29;20506;-39
2022/12/07 03:04:53;;;;;;;5.47;0.60;;;15.90;1.00;;;;;;4840484;29;20052;-39
2022/12/07 03:07:46;;;;;;;1.75;0.40;;;16.00;1.00;;;;;;4840836;29;20125;-40
2022/12/07 03:10:28;;;;;;;4.25;0.77;;;16.00;1.00;;;;;;4844418;29;20064;-40
2022/12/07 03:13:01;;;;;;;3.07;0.83;;;15.90;1.00;;;;;;4843944;29;20053;-40
2022/12/07 03:15:32;;;;;;;2.60;0.52;;;15.90;1.00;;;;;;4837417;29;20030;-40
2022/12/07 03:18:01;;;;;;;0.80;0.38;;;15.80;1.00;;;;;;4840881;29;20046;-40
2022/12/07 03:20:31;;;;;;;3.15;1.10;;;15.90;1.00;;;;;;4844097;29;20458;-40
2022/12/07 03:22:59;;;;;;;2.85;0.50;;;15.80;1.00;;;;;;4843749;29;20124;-40
2022/12/07 03:25:26;;;;;;;1.95;0.45;;;15.80;1.00;;;;;;4843973;29;20541;-40
2022/12/07 03:28:05;;;;;;;4.63;0.47;;;15.80;1.00;;;;;;4843930;29;20121;-40
2022/12/07 03:30:57;;;;;;;3.90;0.80;;;15.80;1.00;;;;;;4844057;29;20133;-40
2022/12/07 03:33:31;;;;;;;4.22;0.55;;;15.70;1.00;;;;;;4841384;29;20050;-40
2022/12/07 03:36:05;;;;;;;1.70;0.28;;;15.80;1.00;;;;;;4843875;29;20074;-40
2022/12/07 03:38:58;;;;;;;2.05;0.43;;;15.70;1.00;;;;;;4843874;29;20050;-40
2022/12/07 03:41:29;;;;;;;1.25;0.30;;;15.70;1.00;;;;;;4835641;29;20042;-40
2022/12/07 03:43:57;;;;;;;2.90;0.43;;;15.70;1.00;;;;;;4840249;29;20114;-40
2022/12/07 03:46:42;;;;;;;1.38;0.28;;;15.70;1.00;;;;;;4836790;29;20088;-40
2022/12/07 03:49:30;;;;;;;1.77;0.40;;;15.70;1.00;;;;;;4843742;29;20502;-40
2022/12/07 03:52:28;;;;;;;1.52;0.50;;;15.60;1.00;;;;;;4843118;29;20038;-40
2022/12/07 03:55:04;;;;;;;0.82;0.40;;;15.70;1.00;;;;;;4843549;29;20053;-40
2022/12/07 03:57:33;;;;;;;2.13;0.50;;;15.60;1.00;;;;;;4843629;29;20054;-40
2022/12/07 04:00:00;;;;;;;3.42;0.30;;;15.60;1.00;;;;;;4843619;29;20414;-40
2022/12/07 04:02:38;;;;;;;2.00;0.50;;;15.60;1.00;;;;;;4843130;29;20064;-39
2022/12/07 04:05:05;;;;;;;0.68;0.30;;;15.60;1.00;;;;;;4843324;29;20120;-40
2022/12/07 04:07:32;;;;;;;1.60;0.45;;;15.60;1.00;;;;;;4843284;29;20038;-40
2022/12/07 04:09:59;;;;;;;1.60;0.68;;;15.60;1.00;;;;;;4843494;29;20038;-40
2022/12/07 04:12:27;;;;;;;1.92;0.30;;;15.60;1.00;;;;;;4843223;29;20054;-40
2022/12/07 04:14:53;;;;;;;0.98;0.30;;;15.50;1.00;;;;;;4842437;29;20562;-40
2022/12/07 04:17:20;;;;;;;1.13;0.40;;;15.50;1.00;;;;;;4824705;29;20233;-40
2022/12/07 04:19:47;;;;;;;3.33;0.40;;;15.50;1.00;;;;;;4824709;29;20076;-40
2022/12/07 04:22:13;;;;;;;1.45;0.30;;;15.50;1.00;;;;;;4824561;29;20058;-40
2022/12/07 04:24:40;;;;;;;1.63;0.70;;;15.50;1.00;;;;;;4824572;29;20150;-40
2022/12/07 04:27:07;;;;;;;2.92;0.45;;;15.50;1.00;;;;;;4824642;29;20050;-40
2022/12/07 04:29:34;;;;;;;1.33;0.40;;;15.50;1.00;;;;;;4824832;29;20048;-39
2022/12/07 04:32:00;;;;;;;1.25;0.30;;;15.50;1.00;;;;;;4824426;29;20046;-40
2022/12/07 04:34:27;;;;;;;2.70;0.77;;;15.50;1.00;;;;;;4824300;29;20102;-40
2022/12/07 04:36:54;;;;;;;2.92;0.20;;;15.40;1.00;;;;;;4808137;29;20078;-40
2022/12/07 04:39:29;;;;;;;1.70;0.20;;;15.40;1.00;;;;;;4824691;29;20083;-40
2022/12/07 04:41:57;;;;;;;0.35;0.10;;;15.40;1.00;;;;;;4824469;29;20486;-39
2022/12/07 04:44:25;;;;;;;2.33;0.30;;;15.40;1.00;;;;;;4824238;29;20121;-40
2022/12/07 04:46:52;;;;;;;2.42;0.43;;;15.40;1.00;;;;;;4824380;29;20121;-40
2022/12/07 04:49:19;;;;;;;3.13;0.28;;;15.40;1.00;;;;;;4824419;29;20051;-40
2022/12/07 04:51:47;;;;;;;2.33;0.35;;;15.40;1.00;;;;;;4824285;29;20459;-40
2022/12/07 04:54:15;;;;;;;1.33;0.50;;;15.40;1.00;;;;;;4824106;29;20039;-40
2022/12/07 04:56:42;;;;;;;2.03;0.50;;;15.40;1.00;;;;;;4824344;29;20099;-40
2022/12/07 04:59:10;;;;;;;1.65;0.45;;;15.40;1.00;;;;;;4824423;29;20077;-40
2022/12/07 05:01:37;;;;;;;3.47;0.30;;;15.30;1.00;;;;;;4824069;29;20098;-40
2022/12/07 05:04:04;;;;;;;1.95;0.25;;;15.30;1.00;;;;;;4823852;29;20122;-40
2022/12/07 05:06:31;;;;;;;2.20;0.50;;;15.30;1.00;;;;;;4824071;29;20053;-40
2022/12/07 05:08:58;;;;;;;1.58;0.40;;;15.30;1.00;;;;;;4824036;29;20070;-40
2022/12/07 05:11:40;;;;;;;3.38;0.25;;;15.30;1.00;;;;;;4824456;29;20506;-39
2022/12/07 05:14:16;;;;;;;2.20;0.40;;;15.30;1.00;;;;;;4830747;29;20508;-39
2022/12/07 05:16:44;;;;;;;7.53;0.40;;;15.30;1.00;;;;;;4837913;29;20117;-39
2022/12/07 05:19:11;;;;;;;7.65;0.90;;;15.30;1.00;;;;;;4835813;29;20054;-40
2022/12/07 05:21:39;;;;;;;9.00;0.85;;;15.30;1.00;;;;;;4829547;29;20053;-39
2022/12/07 05:24:07;;;;;;;2.15;0.22;;;15.30;1.00;;;;;;4835240;29;20053;-40
2022/12/07 05:26:34;;;;;;;4.88;0.63;;;15.20;1.00;;;;;;4838456;29;20054;-39
2022/12/07 05:29:01;;;;;;;2.10;0.90;;;15.20;1.00;;;;;;4839784;29;20073;-39
2022/12/07 05:31:28;;;;;;;2.10;0.40;;;15.20;1.00;;;;;;4825291;29;20056;-40
2022/12/07 05:33:55;;;;;;;5.82;1.15;;;15.20;1.00;;;;;;4841597;29;20045;-37
2022/12/07 05:36:22;;;;;;;5.60;0.77;;;15.20;1.00;;;;;;4841761;29;20046;-38
2022/12/07 05:38:49;;;;;;;4.32;0.63;;;15.20;1.00;;;;;;4841648;29;20079;-39
2022/12/07 05:44:04;;;;;;;1.95;0.40;;;15.20;1.00;;;;;;4828911;29;20046;-38
2022/12/07 05:46:31;;;;;;;2.42;0.63;;;15.20;1.00;;;;;;4823640;29;20150;-38
2022/12/07 05:48:58;;;;;;;3.97;0.43;;;15.10;1.00;;;;;;4823259;29;20051;-38
2022/12/07 05:51:24;;;;;;;8.25;0.80;;;15.10;1.00;;;;;;4823300;29;20046;-38
2022/12/07 05:53:51;;;;;;;3.58;0.88;;;15.10;1.00;;;;;;4823298;29;20508;-38
2022/12/07 05:56:18;;;;;;;2.13;0.55;;;15.10;1.00;;;;;;4823568;29;20375;-39
2022/12/07 06:01:30;;;;;;;2.75;0.52;;;15.10;1.00;;;;;;4822059;29;20514;-40
2022/12/07 06:03:57;;;;;;;4.07;0.38;;;15.10;1.00;;;;;;4840956;29;20132;-38
2022/12/07 06:06:24;;;;;;;2.70;0.60;;;15.10;1.00;;;;;;4841060;29;20147;-38
2022/12/07 06:08:50;;;;;;;6.82;0.85;;;15.10;1.00;;;;;;4841367;29;20490;-43
2022/12/07 06:14:02;;;;;;;2.10;0.38;;;15.10;1.00;;;;;;4840977;29;20121;-38
2022/12/07 06:16:29;;;;;;;2.05;0.50;;;15.00;1.00;;;;;;4841547;29;20499;-39
2022/12/07 06:18:56;;;;;;;1.67;0.35;;;15.00;1.00;;;;;;4841190;29;20058;-38
2022/12/07 06:21:23;;;;;;;4.63;0.50;;;15.00;1.00;;;;;;4841218;29;20053;-38
2022/12/07 06:23:49;;;;;;;3.80;0.68;;;15.00;1.00;;;;;;4824806;29;20110;-37
2022/12/07 06:26:16;;;;;;;10.32;1.05;;;15.00;1.00;;;;;;4841120;29;20054;-38
2022/12/07 06:28:43;;;;;;;2.55;0.40;;;15.00;1.00;;;;;;4840964;29;20114;-39
2022/12/07 06:31:10;;;;;;;10.07;1.00;;;15.00;1.00;;;;;;4841000;29;20460;-38
2022/12/07 06:33:40;;;;;;;3.95;0.65;;;15.00;1.00;;;;;;4840809;29;20471;-39
2022/12/07 06:36:07;;;;;;;2.80;0.50;;;15.00;1.00;;;;;;4841129;29;20094;-38
2022/12/07 06:38:34;;;;;;;1.58;0.17;;;15.00;1.00;;;;;;4841090;29;20058;-38
2022/12/07 06:41:01;;;;;;;3.45;0.60;;;15.00;1.00;;;;;;4841049;29;20079;-38
2022/12/07 06:43:29;;;;;;;7.65;0.70;;;14.90;1.00;;;;;;4841874;29;20050;-38
2022/12/07 06:45:56;;;;;;;1.33;0.15;;;14.90;1.00;;;;;;4844767;29;20053;-38
2022/12/07 06:48:24;;;;;;;3.42;0.90;;;14.90;1.00;;;;;;4844646;29;20080;-38
2022/12/07 06:50:51;;;;;;;2.00;0.40;;;14.90;1.00;;;;;;4844540;29;20071;-39
2022/12/07 06:53:22;;;;;;;1.15;0.45;;;14.90;1.00;;;;;;4827746;29;20054;-38
2022/12/07 06:55:49;;;;;;;5.15;0.40;;;14.90;1.00;;;;;;4844457;29;20050;-38
2022/12/07 06:58:16;;;;;;;3.90;0.50;;;14.90;1.00;;;;;;4844589;29;20487;-38
2022/12/07 07:00:44;;;;;;;1.45;0.30;;;14.90;1.00;;;;;;4844469;29;20057;-38
2022/12/07 07:03:10;;;;;;;3.35;0.43;;;14.90;1.00;;;;;;4844146;29;20115;-38
2022/12/07 07:05:37;;;;;;;1.02;0.47;;;14.80;1.00;;;;;;4844498;29;20137;-38
2022/12/07 07:08:04;;;;;;;1.35;0.30;;;14.80;1.00;;;;;;4844310;29;20132;-38
2022/12/07 07:10:48;;;;;;;2.60;0.68;;;14.80;1.00;;;;;;4827612;29;20145;-38
2022/12/07 07:13:15;;;;;;;3.05;0.80;;;14.80;1.00;;;;;;4844114;29;20080;-39
2022/12/07 07:15:42;;;;;;;1.92;0.50;;;14.80;1.00;;;;;;4844222;29;20550;-38
2022/12/07 07:18:08;;;;;;;1.58;0.38;;;14.80;1.00;;;;;;4844175;29;20053;-39
2022/12/07 07:20:36;;;;;;;3.58;0.60;;;14.80;1.00;;;;;;4844177;29;20094;-39
2022/12/07 07:23:03;;;;;;;2.65;0.30;;;14.80;1.00;;;;;;4843638;29;20054;-39
2022/12/07 07:25:29;;;;;;;4.53;0.30;;;14.70;1.00;;;;;;4844317;29;20137;-39
2022/12/07 07:27:56;;;;;;;2.80;0.40;;;14.80;1.00;;;;;;4844003;29;20091;-39
2022/12/07 07:30:24;;;;;;;1.92;0.30;;;14.80;1.00;;;;;;4844039;29;20472;-39
2022/12/07 07:32:50;;;;;;;5.38;0.40;;;14.70;1.00;;;;;;4843418;29;20056;-39
2022/12/07 07:35:17;;;;;;;1.65;0.57;;;14.70;1.00;;;;;;4842053;29;20051;-38
2022/12/07 07:37:44;;;;;;;2.80;0.50;;;14.70;1.00;;;;;;4838104;29;20069;-39
2022/12/07 07:40:11;;;;;;;4.80;0.30;;;14.70;1.00;;;;;;4838380;29;20062;-39
2022/12/07 07:42:38;;;;;;;2.92;0.20;;;14.70;1.00;;;;;;4837915;29;20050;-39
2022/12/07 07:45:05;;;;;;;1.83;0.50;;;14.70;1.00;;;;;;4843615;29;20507;-38
2022/12/07 07:47:32;;;;;;;3.80;0.55;;;14.70;1.00;;;;;;4843410;29;20038;-38
2022/12/07 07:49:58;;;;;;;1.35;0.50;;;14.70;1.00;;;;;;4843512;29;20474;-39
2022/12/07 07:52:25;;;;;;;1.80;0.50;;;14.70;1.00;;;;;;4843426;29;20463;-39
2022/12/07 07:54:52;;;;;;;1.75;0.30;;;14.70;1.00;;;;;;4842991;29;20134;-38
2022/12/07 07:57:19;;;;;;;1.35;0.20;;;14.70;1.00;;;;;;4843471;29;20499;-39
2022/12/07 07:59:46;;;;;;;1.67;0.40;;;14.70;1.00;;;;;;4843440;29;20174;-38
2022/12/07 08:02:19;;;;;;;0.55;0.35;;;14.70;1.00;;;;;;4843179;29;20054;-38
2022/12/07 08:04:46;;;;;;;1.70;0.32;;;14.60;1.00;;;;;;4843531;29;20050;-39
2022/12/07 08:07:14;;;;;;;3.03;0.70;;;14.60;1.00;;;;;;4843328;29;20525;-39
2022/12/07 08:09:41;;;;;;;1.85;0.65;;;14.60;1.00;;;;;;4843244;29;20050;-39
2022/12/07 08:12:08;;;;;;;2.67;0.47;;;14.60;1.00;;;;;;4843086;29;20467;-39
2022/12/07 08:14:36;;;;;;;1.35;0.20;;;14.60;1.00;;;;;;4843133;29;20045;-39
2022/12/07 08:17:05;;;;;;;3.75;0.93;;;14.60;1.00;;;;;;4843001;29;20046;-39
2022/12/07 08:19:33;;;;;;;2.22;0.73;;;14.60;1.00;;;;;;4843301;29;20050;-39
2022/12/07 08:21:59;;;;;;;1.27;0.30;;;14.60;1.00;;;;;;4842847;29;20054;-39
2022/12/07 08:24:26;;;;;;;2.22;0.25;;;14.60;1.00;;;;;;4842764;29;20213;-39
2022/12/07 08:26:53;;;;;;;1.17;0.25;;;14.60;1.00;;;;;;4843009;29;20517;-40
2022/12/07 08:29:20;;;;;;;2.83;0.32;;;14.60;1.00;;;;;;4842972;29;20417;-39
2022/12/07 08:31:47;;;;;;;0.98;0.43;;;14.60;1.00;;;;;;4842671;29;20050;-39
2022/12/07 08:34:14;;;;;;;1.30;0.40;;;14.60;1.00;;;;;;4842679;29;20046;-39
2022/12/07 08:36:40;;;;;;;1.52;0.40;;;14.50;1.00;;;;;;4842951;29;20415;-39
2022/12/07 08:39:07;;;;;;;0.98;0.32;;;14.50;1.00;;;;;;4842768;29;20506;-39
2022/12/07 08:41:54;;;;;;;1.35;0.35;;;14.50;1.00;;;;;;4843111;29;20049;-38
2022/12/07 08:44:21;;;;;;;2.13;0.30;;;14.50;1.00;;;;;;4842444;29;20053;-40
2022/12/07 08:46:55;;;;;;;2.88;0.80;;;14.50;1.00;;;;;;4842588;29;20049;-38
2022/12/07 08:49:27;;;;;;;2.03;0.38;;;14.50;1.00;;;;;;4842636;29;20073;-38
2022/12/07 08:51:55;;;;;;;2.42;0.43;;;14.50;1.00;;;;;;4842473;29;20046;-39
2022/12/07 08:54:22;;;;;;;2.17;0.60;;;14.50;1.00;;;;;;4842361;29;20054;-38
2022/12/07 08:56:51;;;;;;;1.73;0.32;;;14.50;1.00;;;;;;4842424;29;20487;-39
2022/12/07 08:59:25;;;;;;;1.45;0.30;;;14.50;1.00;;;;;;4842313;29;20049;-39
2022/12/07 09:01:52;;;;;;;3.47;0.40;;;14.50;1.00;;;;;;4842253;29;20058;-40
2022/12/07 09:04:20;;;;;;;3.03;1.38;;;14.50;1.00;;;;;;4842129;29;20098;-39
2022/12/07 09:06:47;;;;;;;4.97;0.43;;;14.50;1.00;;;;;;4841536;29;20527;-39
2022/12/07 09:09:14;;;;;;;1.17;0.28;;;14.40;1.00;;;;;;4842112;29;20038;-40
2022/12/07 09:11:41;;;;;;;2.80;0.50;;;14.40;1.00;;;;;;4842230;29;20038;-39
2022/12/07 09:14:08;;;;;;;4.97;0.40;;;14.40;1.00;;;;;;4841779;29;20042;-39
2022/12/07 09:16:35;;;;;;;2.03;0.57;;;14.40;1.00;;;;;;4842142;29;20524;-39
2022/12/07 09:19:03;;;;;;;1.55;0.28;;;14.40;1.00;;;;;;4842045;29;20452;-39
2022/12/07 09:21:30;;;;;;;1.63;0.35;;;14.40;1.00;;;;;;4842016;29;20136;-39
2022/12/07 09:23:57;;;;;;;0.73;0.22;;;14.40;1.00;;;;;;4841621;29;20197;-39
2022/12/07 09:26:24;;;;;;;1.33;0.30;;;14.40;1.00;;;;;;4842107;29;20053;-39
2022/12/07 09:28:50;;;;;;;3.90;0.38;;;14.40;1.00;;;;;;4841974;29;20556;-39
2022/12/07 09:31:17;;;;;;;1.95;0.50;;;14.40;1.00;;;;;;4841827;29;20062;-39
2022/12/07 09:33:58;;;;;;;2.28;0.32;;;14.40;1.00;;;;;;4841577;29;20121;-39
2022/12/07 09:36:26;;;;;;;1.30;0.20;;;14.40;1.00;;;;;;4841815;29;20137;-39
2022/12/07 09:38:53;;;;;;;1.55;0.43;;;14.40;1.00;;;;;;4825684;29;20495;-40
2022/12/07 09:41:22;;;;;;;3.22;0.40;;;14.40;1.00;;;;;;4841624;29;20046;-39
2022/12/07 09:43:49;;;;;;;1.73;0.40;;;14.40;1.00;;;;;;4841367;29;20050;-39
2022/12/07 09:46:18;;;;;;;1.15;0.47;;;14.40;1.00;;;;;;4841623;29;20510;-39
2022/12/07 09:48:47;;;;;;;3.15;0.32;;;14.40;1.00;;;;;;4841424;29;20056;-38
2022/12/07 09:51:23;;;;;;;2.90;0.60;;;14.30;1.00;;;;;;4841482;29;20050;-39
2022/12/07 09:53:54;;;;;;;0.88;0.20;;;14.30;1.00;;;;;;4841206;29;20061;-39
2022/12/07 09:56:22;;;;;;;3.35;1.08;;;14.30;1.00;;;;;;4841427;29;20053;-39
2022/12/07 09:58:51;;;;;;;1.45;0.30;;;14.30;1.00;;;;;;4841474;29;20042;-39
2022/12/07 10:01:20;;;;;;;3.28;0.43;;;14.30;1.00;;;;;;4841260;29;20113;-39
2022/12/07 10:04:16;;;;;;;4.28;0.70;;;14.30;1.00;;;;;;4841074;29;20102;-39
2022/12/07 10:06:43;;;;;;;2.13;0.70;;;14.30;1.00;;;;;;4840621;29;20062;-39
2022/12/07 10:09:11;;;;;;;2.90;0.68;;;14.30;1.00;;;;;;4841315;29;20125;-38
2022/12/07 10:12:08;;;;;;;2.35;0.55;;;14.30;1.00;;;;;;4841122;29;20094;-39
2022/12/07 10:14:38;;;;;;;4.10;0.47;;;14.30;1.00;;;;;;4841041;29;20073;-43
2022/12/07 10:17:38;;;;;;;3.88;0.38;;;14.30;1.00;;;;;;4840979;29;20410;-39
2022/12/07 10:20:28;;;;;;;2.97;0.47;;;14.30;1.00;;;;;;4841226;29;20057;-39
2022/12/07 10:23:04;;;;;;;1.85;0.40;;;14.30;1.00;;;;;;4837945;29;20479;-38
2022/12/07 10:25:38;;;;;;;1.13;0.47;;;14.30;1.00;;;;;;4841240;29;20046;-38
2022/12/07 10:28:07;;;;;;;3.55;0.47;;;14.30;1.00;;;;;;4841272;29;20066;-38
2022/12/07 10:31:14;;;;;;;3.15;0.50;;;14.30;1.00;;;;;;4840996;29;20065;-39
2022/12/07 10:33:59;;;;;;;3.00;0.52;;;14.30;1.00;;;;;;4840727;29;20050;-38
2022/12/07 10:36:35;;;;;;;1.90;0.57;;;14.30;1.00;;;;;;4841135;29;20426;-39
2022/12/07 10:39:14;;;;;;;3.33;0.32;;;14.40;1.00;;;;;;4841017;29;20080;-39
2022/12/07 10:42:02;;;;;;;1.63;0.38;;;14.30;1.00;;;;;;4840695;29;20081;-39
2022/12/07 10:44:31;;;;;;;1.92;0.20;;;14.40;1.00;;;;;;4840808;29;20061;-39
2022/12/07 10:47:08;;;;;;;0.60;0.13;;;14.40;1.00;;;;;;4840774;29;20050;-40
2022/12/07 10:50:05;;;;;;;1.92;0.40;;;14.40;1.00;;;;;;4840998;29;20046;-39
2022/12/07 10:52:45;;;;;;;1.42;0.35;;;14.40;1.00;;;;;;4840767;29;20046;-38
2022/12/07 10:55:31;;;;;;;3.22;0.60;;;14.40;1.00;;;;;;4840900;29;20491;-38
2022/12/07 10:58:41;;;;;;;1.70;0.28;;;14.40;1.00;;;;;;4840733;29;20077;-38
2022/12/07 11:01:33;;;;;;;1.73;0.50;;;14.40;1.00;;;;;;4840881;29;20064;-39
2022/12/07 11:04:28;;;;;;;1.58;0.20;;;14.40;1.00;;;;;;4840434;29;20582;-40
2022/12/07 11:07:20;;;;;;;0.50;0.17;;;14.40;1.00;;;;;;4840724;29;20097;-39
2022/12/07 11:10:04;;;;;;;2.25;0.28;;;14.40;1.00;;;;;;4840631;29;20078;-40
2022/12/07 11:12:58;;;;;;;0.70;0.20;;;14.40;1.00;;;;;;4840478;29;20054;-40
2022/12/07 11:16:12;;;;;;;0.80;0.20;;;14.40;1.00;;;;;;4840822;29;20077;-40
2022/12/07 11:18:51;;;;;;;1.98;0.40;;;14.40;1.00;;;;;;4825382;29;20065;-39
2022/12/07 11:21:31;;;;;;;2.33;0.57;;;14.40;1.00;;;;;;4840687;29;20046;-42
2022/12/07 11:24:11;;;;;;;1.30;0.38;;;14.40;1.00;;;;;;4840277;29;20502;-39
2022/12/07 11:27:02;;;;;;;2.40;0.40;;;14.40;1.00;;;;;;4840473;29;20187;-39
2022/12/07 11:29:51;;;;;;;2.13;0.50;;;14.40;1.00;;;;;;4841536;29;20140;-39
2022/12/07 11:32:50;;;;;;;2.90;0.30;;;14.40;1.00;;;;;;4843767;29;20050;-39
2022/12/07 11:35:17;;;;;;;1.85;0.30;;;14.40;1.00;;;;;;4844547;29;20106;-40
2022/12/07 11:37:45;;;;;;;4.05;0.57;;;14.40;1.00;;;;;;4812263;29;20133;-40
2022/12/07 11:40:30;;;;;;;2.20;0.30;;;14.40;1.00;;;;;;4843903;29;20057;-39
2022/12/07 11:43:19;;;;;;;2.42;0.45;;;14.40;1.00;;;;;;4826791;29;20093;-38
2022/12/07 11:46:04;;;;;;;5.65;0.82;;;14.40;1.00;;;;;;4843713;29;20128;-39
2022/12/07 11:48:34;;;;;;;2.92;0.55;;;14.40;1.00;;;;;;4843643;29;20128;-39
2022/12/07 11:51:02;;;;;;;2.40;0.45;;;14.40;1.00;;;;;;4843717;29;20414;-39
2022/12/07 11:53:37;;;;;;;2.78;0.47;;;14.40;1.00;;;;;;4843142;29;20050;-39
2022/12/07 11:56:14;;;;;;;2.40;0.50;;;14.40;1.00;;;;;;4843598;29;20061;-38
2022/12/07 11:58:49;;;;;;;1.45;0.25;;;14.40;1.00;;;;;;4843499;29;20079;-39
2022/12/07 12:01:52;;;;;;;1.17;0.30;;;14.40;1.00;;;;;;4843386;29;20038;-39
2022/12/07 12:04:37;;;;;;;1.77;0.32;;;14.40;1.00;;;;;;4843003;29;20042;-39
2022/12/07 12:07:06;;;;;;;2.60;0.20;;;14.40;1.00;;;;;;4843407;29;20053;-38
2022/12/07 12:10:00;;;;;;;2.00;0.40;;;14.40;1.00;;;;;;4843192;29;20050;-38
2022/12/07 12:13:14;;;;;;;3.40;0.60;;;14.40;1.00;;;;;;4843013;29;20114;-39
2022/12/07 12:16:36;;;;;;;1.95;0.32;;;14.40;1.00;;;;;;4836809;29;20062;-39
2022/12/07 12:19:15;;;;;;;1.38;0.25;;;14.40;1.00;;;;;;4843098;29;20152;-38
2022/12/07 12:21:43;;;;;;;3.72;0.45;;;14.40;1.00;;;;;;4843173;29;20054;-39
2022/12/07 12:24:16;;;;;;;2.03;0.50;;;14.40;1.00;;;;;;4842826;29;20050;-39
2022/12/07 12:26:51;;;;;;;;;;;14.40;1.00;;;;;;4843356;29;20111;-39
2022/12/07 12:29:35;;;;;;;2.85;0.65;;;14.40;1.00;;;;;;4843117;29;19936;-39
2022/12/07 12:32:24;;;;;;;2.67;0.57;;;14.40;1.00;;;;;;4842891;29;20050;-39
2022/12/07 12:34:53;;;;;;;1.23;0.28;;;14.40;1.00;;;;;;4842753;29;20038;-38
2022/12/07 12:37:41;;;;;;;3.38;0.70;;;14.40;1.00;;;;;;4842775;29;20128;-39
2022/12/07 12:40:14;;;;;;;2.83;0.50;;;14.40;1.00;;;;;;4826163;29;20054;-39
2022/12/07 12:42:55;;;;;;;1.90;0.55;;;14.40;1.00;;;;;;4842128;29;20133;-39
2022/12/07 12:45:24;;;;;;;1.33;0.65;;;14.40;1.00;;;;;;4842718;29;20820;-38
2022/12/07 12:47:53;;;;;;;1.05;0.20;;;14.40;1.00;;;;;;4842792;29;20466;-38
2022/12/07 12:50:34;;;;;;;0.60;0.10;;;14.40;1.00;;;;;;4842450;29;20565;-39
2022/12/07 12:53:13;;;;;;;0.88;0.40;;;14.40;1.00;;;;;;4842270;29;20125;-38
2022/12/07 12:55:42;;;;;;;0.95;0.30;;;14.40;1.00;;;;;;4842587;29;20037;-42
2022/12/07 12:58:18;;;;;;;1.30;0.30;;;14.30;1.00;;;;;;4826257;29;20125;-39
2022/12/07 13:00:47;;;;;;;2.30;0.30;;;14.30;1.00;;;;;;4842361;29;20053;-39
2022/12/07 13:03:28;;;;;;;1.58;0.22;;;14.30;1.00;;;;;;4842155;29;20058;-38
2022/12/07 13:06:17;;;;;;;2.10;0.40;;;14.30;1.00;;;;;;4842507;29;20060;-38
2022/12/07 13:08:44;;;;;;;2.70;0.40;;;14.30;1.00;;;;;;4842342;29;20050;-39
2022/12/07 13:11:33;;;;;;;1.45;0.30;;;14.30;1.00;;;;;;4842124;29;20046;-40
2022/12/07 13:14:37;;;;;;;1.63;0.43;;;14.30;1.00;;;;;;4841906;29;20418;-40
2022/12/07 13:17:04;;;;;;;1.83;0.20;;;14.30;1.00;;;;;;4842057;29;20057;-40
2022/12/07 13:19:43;;;;;;;2.40;0.50;;;14.30;1.00;;;;;;4842176;29;20124;-40
2022/12/07 13:22:49;;;;;;;1.25;0.20;;;14.30;1.00;;;;;;4841838;29;20530;-39
2022/12/07 13:25:31;;;;;;;1.48;0.43;;;14.30;1.00;;;;;;4821581;29;20064;-39
2022/12/07 13:28:07;;;;;;;1.92;0.45;;;14.30;1.00;;;;;;4821436;29;20058;-39
2022/12/07 13:31:01;;;;;;;1.70;0.30;;;14.30;1.00;;;;;;4834731;29;20062;-40
2022/12/07 13:33:28;;;;;;;3.95;0.80;;;14.30;1.00;;;;;;4831358;29;20062;-39
2022/12/07 13:35:56;;;;;;;2.50;0.50;;;14.30;1.00;;;;;;4841816;29;20526;-39
2022/12/07 13:38:35;;;;;;;1.00;0.20;;;14.30;1.00;;;;;;4841646;29;20046;-39